Airfield :
LOGIN :

Register | Disclaimer

   EN    FR    IT 

 










Legend :    VFR   Marginal VFR   IFR   Intensive IFR   Very Intensive IFR
Visi :
Ceiling :
>= 8 km
>= 3000ft
5 to 8 km
1000 to 3000 ft
1500m to 5 km
500 to 1000 ft
800 to 1500m
200 to 500 ft
< 800m
< 200 ft
Symbols :   Thunderstorms  Fog  Heavy snow  Heavy precipitations  Wind > 20 kt
SIGMETs :     Misc.  Thunderstorms  Icing  Turbulence  Mountain Waves  Volcanic Ashes







- Airport Elevation : 529 ft
- IATA code : CHR
- Download approach charts


LFLX - Chateauroux

CURRENT METAR :
  • 220030Z AUTO 23012KT 9999 FEW045 09/07 Q1022 NOSIG

EXPIRED METARs :
  • 220000Z AUTO 22011KT 9999 BKN036 BKN047 BKN058 09/07 Q1022 NOSIG
  • 212330Z AUTO 23013KT CAVOK 10/07 Q1022 NOSIG
  • 212300Z AUTO 22010KT CAVOK 09/07 Q1021 NOSIG
  • 212230Z AUTO 22012KT CAVOK 10/07 Q1021 NOSIG
  • 212200Z AUTO 22013KT CAVOK 10/07 Q1021 NOSIG

TAF TAF LFLX
Valid from the 22 at 00:00 until the 23 at 06:00 UTC


212300Z 2200/2306 23009KT CAVOK
TEMPO 2208/2214 28018G28KT 4000 SHRA BKN025CB
TEMPO 2300/2306 BKN008
No reported NOTAMs for that airfield.



MET'MAP, your aeronautical weather chart ! - Copyright ORBIFLY December 2007 - Disclaimer

ORBIFLY MET'MAP TEAM :

Programming & Development : Alexandra Zaïnal
Concept & Development : Baudouin d'Aumeries
Co-Development & Prog : Marc-Olivier Méhu
Technical & hardware support : Manuel Goepfert

Contact : metmap@orbifly.com




SOURCES & CREDITS :

   NOAA